• Join FlightAware (Why Join?)
  • Login
  • US Flag 
04:03PM EDT


 

Airport Tracker/Info


-or-


 

Live Flight TrackerFlight Track Log ✈ G-EZBG ✈ 18-Apr-2013 ✈ EGPF / GLA - EGAA / BFS

Flight Track Log - Related Links

Times and Time Zones

All times are in EDT time to prevent confusion due to time zone crossing. See the G-EZBG flight status page for this flight to view local times or setup timezone preferences in your user account.

Time Position Orientation Groundspeed Altitude Reporting Facility
EDT Latitude Longitude Course Direction KTS MPH feet Rate Location/Type
02:09AM 55.8629 -4.4498 231° Southwest 156 180 200  Level FlightAware UK
02:09AM 55.8640 -4.4470 231° Southwest 123 142 1,600 2,220 Climbing FlightAware
02:09AM 55.8544 -4.4684 231° Southwest 172 198 1,100 2,640 Descending FlightAware UK
02:09AM 55.8530 -4.4720 231° Southwest 135 155 2,700 1,500 Climbing FlightAware
02:09AM 55.8444 -4.4914 231° Southwest 198 228 1,700 1,800 Descending FlightAware UK
02:10AM 55.8390 -4.5010 231° Southwest 176 203 3,600 2,580 Climbing FlightAware
02:10AM 55.8266 -4.5259 231° Southwest 238 274 3,000 2,760 Descending FlightAware UK
02:10AM 55.8190 -4.5390 231° Southwest 228 262 5,000 3,360 Climbing FlightAware
02:10AM 55.8034 -4.5666 231° Southwest 270 311 4,700 3,840 Descending FlightAware UK
02:11AM 55.8020 -4.5690 231° Southwest 243 280 6,600 8,340 Climbing FlightAware
02:11AM 55.7850 -4.5920 217° Southwest 251 289 7,900 2,820 Climbing FlightAware
02:11AM 55.7601 -4.6077 217° Southwest 284 327 8,200 2,700 Climbing FlightAware UK
02:11AM 55.7396 -4.6211 200° South 292 336 9,600 8,520 Climbing FlightAware UK
02:11AM 55.7390 -4.6220 200° South 263 303 11,200 3,000 Climbing FlightAware
02:12AM 55.7179 -4.6374 200° South 308 354 10,500  Descending FlightAware UK
02:12AM 55.6942 -4.6537 201° Southwest 332 382 11,200 5,400 Climbing FlightAware UK
02:12AM 55.6820 -4.6620 201° Southwest 315 362 13,200 3,780 Climbing FlightAware
02:13AM 55.6521 -4.6808 201° Southwest 346 398 13,100 1,500 Descending FlightAware UK
02:13AM 55.6270 -4.6961 199° South 336 387 14,100 7,080 Climbing FlightAware UK
02:13AM 55.6260 -4.6970 199° South 310 357 15,700 720 Climbing FlightAware
02:13AM 55.5938 -4.7165 199° South 336 387 14,400 -1,920 Descending FlightAware UK
02:14AM 55.5689 -4.7319 199° South 336 387 14,500 4,800 Climbing FlightAware UK
02:14AM 55.5710 -4.7310 199° South 309 356 16,000  Climbing FlightAware
02:14AM 55.5443 -4.7476 199° South 334 384 14,500 -2,700 Descending FlightAware UK
02:14AM 55.5198 -4.7630 200° South 332 382 14,500 3,060 Level FlightAware UK
02:14AM 55.5090 -4.7700 200° South 305 351 16,000  Climbing FlightAware
02:15AM 55.4791 -4.7888 200° South 334 384 14,500 -2,460 Descending FlightAware UK
02:15AM 55.4545 -4.8044 200° South 332 382 14,500 4,260 Level FlightAware UK
02:15AM 55.4550 -4.8040 200° South 308 354 16,000  Climbing FlightAware
02:15AM 55.4298 -4.8200 200° South 334 384 14,500  Descending FlightAware UK
02:16AM 55.4000 -4.8390 200° South 311 358 16,000  Climbing FlightAware
02:16AM 55.3558 -4.8659 200° South 332 382 14,500  Descending FlightAware UK
02:16AM 55.3400 -4.8760 200° South 312 359 16,000  Climbing FlightAware
02:17AM 55.3070 -4.8967 200° South 332 382 14,500 -2,400 Descending FlightAware UK
02:17AM 55.2825 -4.9120 200° South 334 384 14,500 4,500 Level FlightAware UK
02:17AM 55.2840 -4.9110 200° South 306 352 16,000  Climbing FlightAware
02:17AM 55.2580 -4.9274 200° South 334 384 14,500 -2,700 Descending FlightAware UK
02:18AM 55.2334 -4.9431 200° South 334 384 14,500 3,060 Level FlightAware UK
02:18AM 55.2240 -4.9520 200° South 305 351 16,000  Climbing FlightAware
02:18AM 55.1948 -4.9780 200° South 332 382 14,500 -2,460 Descending FlightAware UK
02:18AM 55.1728 -5.0017 212° Southwest 336 387 14,500 4,260 Level FlightAware UK
02:18AM 55.1730 -5.0020 212° Southwest 305 351 16,000  Climbing FlightAware
02:19AM 55.1509 -5.0247 212° Southwest 334 384 14,500 -2,760 Descending FlightAware UK
02:19AM 55.1283 -5.0481 211° Southwest 334 384 14,500 3,600 Level FlightAware UK
02:19AM 55.1240 -5.0520 211° Southwest 314 361 16,000  Climbing FlightAware
02:19AM 55.0984 -5.0788 211° Southwest 334 384 14,500 -2,580 Descending FlightAware UK
02:20AM 55.0758 -5.1017 210° Southwest 334 384 14,500 3,000 Level FlightAware UK
02:20AM 55.0680 -5.1100 210° Southwest 313 360 15,900 -1,800 Climbing FlightAware
02:20AM 55.0382 -5.1396 210° Southwest 332 382 13,600 -4,740 Descending FlightAware UK
02:21AM 55.0157 -5.1617 209° Southwest 330 380 12,900 2,700 Descending FlightAware UK
02:21AM 55.0160 -5.1610 209° Southwest 312 359 14,500 -1,380 Climbing FlightAware
02:21AM 54.9928 -5.1830 209° Southwest 326 375 12,500 -4,440 Descending FlightAware UK
02:21AM 54.9725 -5.2083 216° Southwest 320 368 12,000 2,220 Descending FlightAware UK
02:21AM 54.9650 -5.2200 216° Southwest 291 335 13,600 -600 Climbing FlightAware
02:22AM 54.9422 -5.2526 216° Southwest 304 350 11,700 -3,600 Descending FlightAware UK
02:22AM 54.9277 -5.2822 229° Southwest 300 345 11,400 3,660 Descending FlightAware UK
02:22AM 54.9310 -5.2760 229° Southwest 263 303 13,000 -1,680 Climbing FlightAware
02:22AM 54.9137 -5.3115 229° Southwest 298 343 10,900 -4,920 Descending FlightAware UK
02:23AM 54.8996 -5.3404 230° Southwest 296 341 10,300 1,200 Descending FlightAware UK
02:23AM 54.8930 -5.3540 230° Southwest 256 295 11,500 -2,040 Climbing FlightAware
02:23AM 54.8800 -5.3902 230° Southwest 290 334 9,300 -4,680 Descending FlightAware UK
02:23AM 54.8698 -5.4209 240° Southwest 286 329 8,700 2,700 Descending FlightAware UK
02:23AM 54.8710 -5.4180 240° Southwest 242 278 10,300 -2,280 Climbing FlightAware
02:24AM 54.8565 -5.4626 240° Southwest 284 327 7,800 -2,400 Descending FlightAware UK
02:24AM 54.8530 -5.4740 240° Southwest 248 285 9,100 -2,040 Climbing FlightAware
02:24AM 54.8391 -5.5152 240° Southwest 282 325 6,800 -1,680 Descending FlightAware UK
02:24AM 54.8380 -5.5180 240° Southwest 247 284 8,400 -1,260 Climbing FlightAware
02:25AM 54.8253 -5.5573 240° Southwest 278 320 6,300 -1,440 Descending FlightAware UK
02:25AM 54.8250 -5.5570 240° Southwest 241 277 7,800 -1,800 Climbing FlightAware
02:25AM 54.8117 -5.5979 240° Southwest 274 315 5,600 -4,680 Descending FlightAware UK
02:25AM 54.8017 -5.6282 240° Southwest 272 313 5,000 1,980 Descending FlightAware UK
02:25AM 54.8000 -5.6340 240° Southwest 239 275 6,500 -1,500 Climbing FlightAware
02:26AM 54.7883 -5.6685 240° Southwest 272 313 4,400 -1,620 Descending FlightAware UK
02:26AM 54.7870 -5.6830 240° Southwest 233 268 5,700 -1,440 Climbing FlightAware
02:26AM 54.7811 -5.7226 240° Southwest 268 308 3,700 -1,440 Descending FlightAware UK
02:26AM 54.7800 -5.7300 240° Southwest 224 258 5,100 -1,440 Climbing FlightAware
02:27AM 54.7746 -5.7748 240° Southwest 260 299 3,000 -1,200 Descending FlightAware UK
02:27AM 54.7730 -5.7810 240° Southwest 213 245 4,500 -240 Climbing FlightAware
02:27AM 54.7628 -5.8196 240° Southwest 232 267 2,900 -240 Descending FlightAware UK
02:27AM 54.7610 -5.8250 240° Southwest 182 209 4,400  Climbing FlightAware
02:28AM 54.7531 -5.8576 240° Southwest 202 232 2,900  Descending FlightAware UK
02:28AM 54.7550 -5.8520 240° Southwest 167 192 4,400  Climbing FlightAware
02:28AM 54.7459 -5.8853 240° Southwest 192 221 2,900  Descending FlightAware UK
02:28AM 54.7450 -5.8900 240° Southwest 141 162 4,400 3,420 Climbing FlightAware
02:29AM 54.7410 -5.9050 245° Southwest 139 160 4,400 -3,540 Level FlightAware
02:29AM 54.7344 -5.9283 245° Southwest 180 207 2,600 -720 Descending FlightAware UK
02:29AM 54.7330 -5.9320 245° Southwest 136 157 4,100 -540 Climbing FlightAware
02:29AM 54.7280 -5.9526 245° Southwest 178 205 2,400 -600 Descending FlightAware UK
02:29AM 54.7260 -5.9610 245° Southwest 138 159 3,800 -1,020 Climbing FlightAware
02:30AM 54.7197 -5.9830 245° Southwest 1 1 1,900 -960 Descending FlightAware UK
02:30AM 54.7190 -5.9870 245° Southwest 140 161 3,400 -840 Climbing FlightAware
02:30AM 54.7115 -6.0139 245° Southwest 1 1 1,500 -840 Descending FlightAware UK
02:30AM 54.7110 -6.0180 245° Southwest 137 158 3,000 3,120 Climbing FlightAware
02:31AM 54.7070 -6.0330 245° Southwest 135 155 2,800 -3,960 Descending FlightAware
02:31AM 54.7002 -6.0563 245° Southwest 1 1 900 -720 Descending FlightAware UK
02:31AM 54.7000 -6.0580 245° Southwest 131 151 2,500 -540 Climbing FlightAware
02:31AM 54.6947 -6.0772 245° Southwest 1 1 700 -600 Descending FlightAware UK
02:32AM 54.6930 -6.0840 245° Southwest 105 121 2,200 -600 Climbing FlightAware
02:32AM 54.6883 -6.1010 245° Southwest 1 1 400 -600 Descending FlightAware UK
02:32AM 54.6870 -6.1080 245° Southwest 107 123 1,900 -600 Climbing FlightAware
02:32AM 54.6821 -6.1248 245° Southwest 1 1 100 -720 Descending FlightAware UK
02:32AM 54.6810 -6.1280 245° Southwest 110 127 1,600 6,420 Climbing FlightAware
02:33AM 54.6800 -6.1310 240° Southwest 110 127 1,600 -360 Level FlightAware
02:33AM 54.6700 -6.1690 246° West 110 127 1,300 -360 Descending FlightAware
02:37AM 54.6575 -6.2158 245° Southwest  Level Estimated
02:38AM 54.6575 -6.2158 270° West  Level Estimated
02:39AM 54.6575 -6.2158 270° West  Level Estimated
02:40AM 54.6575 -6.2158 270° West  Level Estimated
02:41AM 54.6575 -6.2158 270° West  Level Estimated
02:42AM 54.6575 -6.2158 270° West  Level Estimated
02:43AM 54.6575 -6.2158 270° West  Level Estimated
02:44AM 54.6575 -6.2158 270° West  Level Estimated
02:45AM 54.6575 -6.2158 270° West  Level Estimated
02:46AM 54.6575 -6.2158 270° West  Level Estimated
02:47AM 54.6575 -6.2158 270° West  Level Estimated
02:48AM 54.6575 -6.2158 270° West  Level Estimated